Clio, MI (48420)

7:48 AM EDT on September 27, 2016 (GMT -0400)
Sutton Kingdom | | Change Station

Elev 676 ft 43.20 °N, 83.78 °W | Updated 12 minutes ago

Clear
Clear
50.5 °F
Feels Like 50.5 °F
N
2.2
Wind Variable Wind from SSW

Today
High -- | Low -- °F
--% Chance of Precip.
Yesterday
High -- | Low -- °F
Precip. -- in
Pressure 29.77 in
Visibility 10.0 miles
Clouds Clear
Dew Point 44 °F
Humidity 78%
Rainfall 0.00 in
Snow Depth Not available.
7:28 AM 7:22 PM
Waning Crescent, 12% visible
METAR KFNT 271053Z 22009KT 10SM CLR 11/04 A2977 RMK AO2 SLP081 T01060044 $
Pressure 29.77 in
Visibility 10.0 miles
Clouds Clear
Dew Point 44 °F
Humidity 78%
Rainfall 0.00 in
Snow Depth Not available.
7:28 AM 7:22 PM
Waning Crescent, 12% visible
METAR KFNT 271053Z 22009KT 10SM CLR 11/04 A2977 RMK AO2 SLP081 T01060044 $

10-Day Weather Forecast

Almanac

Astronomy

Sep. 27, 2016 Rise Set
Actual Time
Civil Twilight
Nautical Twilight
Astronomical Twilight
Moon
Length of Visible Light
Length of Day
Tomorrow will be .
, % of the Moon is Illuminated

Today's Extremes

State Highs State Lows

Community

WunderPhotos

Upload Photos

1,942,058 photos uploaded!

WunderBlog® & News

Nearby

Air Quality

  Air Quality AQ Index Pollutant
Not available.

Snow Depth

Station Depth Elevation

Earthquake Activity

City Distance Mag. Time & Date
Minimum magnitude displayed is 2.5.

Coastal Water Temperatures

Place Temperature

Stations

Nearby Weather Stations

Station Location Temp. Windchill Dew Point Humidity Wind Precip. Elev Updated Type
                   

Watches & Warnings

There are currently no watches in effect.